KGWO/GWO METAR and TAF weather

Enter ICAO airport designator
Station Type Date Time Source
KGWO METAR 2019/06/17 05:53 UTC NOAA

KGWO 170553Z AUTO 20005KT 10SM FEW017 SCT100 22/21 A2995 RMK AO2 SLP140 T02220206 10261 20222 403170222 50012


Station Type Date Time Source
KGWO Decoded METAR 2019/06/17 05:53 UTC NOAA

GREENWOOD-LEFLORE AIRPORT, MS, United States (KGWO) 33-30N 090-05W 44M
Jun 17, 2019 - 01:53 AM EDT / 2019.06.17 0553 UTC
Wind: from the SSW (200 degrees) at 6 MPH (5 KT):0
Visibility: 10 mile(s):0
Sky conditions: partly cloudy
Temperature: 72.0 F (22.2 C)
Dew Point: 69.1 F (20.6 C)
Relative Humidity: 90%
Pressure (altimeter): 29.95 in. Hg (1014 hPa)
Pressure tendency: 0.04 inches (1.2 hPa) higher than three hours ago
ob: KGWO 170553Z AUTO 20005KT 10SM FEW017 SCT100 22/21 A2995 RMK AO2 SLP140 T02220206 10261 20222 403170222 50012
cycle: 6

Station Type Date Time Source
KGWO TAF 2019/06/17 06:22 UTC NOAA

TAF KGWO 170520Z 1706/1806 22008KT P6SM BKN110
FM171100 17005KT P6SM BKN015
FM171400 18006KT P6SM BKN025 BKN250
FM171900 18008KT P6SM VCSH BKN040 BKN060
FM172200 19010KT 4SM RA BR VCTS BKN025CB OVC050
FM180200 16008KT 5SM -RA BR BKN050 OVC100

Example: see airport list